KGCK

Garden City Regional Airport

Garden City, Kansas, USA
METAR KGCK 172054Z 36013KT 10SM CLR 07/M02 A2997 RMK AO2 SLP153 T00721022 58013
Observed Flight Rules
Dec-17 @ 20:54 UTC (26 minutes ago) Visual Flight Rules
Wind Visibility Clouds
360° at 13 knots 10 miles
  • Clear skies
Temperatures Readings
Current 7°C / 45°F
Dewpoint -2°C / 28°F
Humidity 53%
Altimeter 29.97" Hg
Pressure 1015.3 hPa
Elevation 877
METAR KGCK 172054Z 36013KT 10SM CLR 07/M02 A2997 RMK AO2 SLP153 T00721022 58013
Observed Flight Rules
Dec-17 @ 20:54 UTC
(26 minutes ago)
VFR
Wind Visibility
360° at 13 knots 10 miles
Clouds
  • Clear skies
Temperature Dewpoint
7°C / 45°F -2°C / 28°F
Humidity Altimeter Pressure
53% 29.97" Hg 1015.3 hPa